sensor_id;sensor_type;location;lat;lon;timestamp;P1;durP1;ratioP1;P2;durP2;ratioP2
52554;SDS011;38455;52.710;6.502;2022-12-11T00:01:24;105.93;;;27.70;;
52554;SDS011;38455;52.710;6.502;2022-12-11T00:03:49;101.72;;;28.05;;
52554;SDS011;38455;52.710;6.502;2022-12-11T00:06:16;97.38;;;25.58;;
52554;SDS011;38455;52.710;6.502;2022-12-11T00:08:43;92.53;;;26.85;;
52554;SDS011;38455;52.710;6.502;2022-12-11T00:11:10;93.25;;;25.50;;
52554;SDS011;38455;52.710;6.502;2022-12-11T00:13:38;76.65;;;23.40;;
52554;SDS011;38455;52.710;6.502;2022-12-11T00:16:04;89.72;;;25.35;;
52554;SDS011;38455;52.710;6.502;2022-12-11T00:18:30;92.15;;;26.60;;
52554;SDS011;38455;52.710;6.502;2022-12-11T00:20:59;94.65;;;24.17;;
52554;SDS011;38455;52.710;6.502;2022-12-11T00:23:28;82.55;;;26.08;;
52554;SDS011;38455;52.710;6.502;2022-12-11T00:25:54;86.03;;;25.73;;
52554;SDS011;38455;52.710;6.502;2022-12-11T00:28:19;86.05;;;24.77;;
52554;SDS011;38455;52.710;6.502;2022-12-11T00:30:46;85.28;;;25.23;;
52554;SDS011;38455;52.710;6.502;2022-12-11T00:33:13;84.93;;;25.27;;
52554;SDS011;38455;52.710;6.502;2022-12-11T00:35:40;88.00;;;24.23;;
52554;SDS011;38455;52.710;6.502;2022-12-11T00:38:07;85.43;;;24.10;;
52554;SDS011;38455;52.710;6.502;2022-12-11T00:40:37;72.57;;;22.50;;
52554;SDS011;38455;52.710;6.502;2022-12-11T00:43:03;81.15;;;24.65;;
52554;SDS011;38455;52.710;6.502;2022-12-11T00:45:29;87.88;;;23.58;;
52554;SDS011;38455;52.710;6.502;2022-12-11T00:47:54;86.05;;;23.90;;
52554;SDS011;38455;52.710;6.502;2022-12-11T00:50:20;98.40;;;25.48;;
52554;SDS011;38455;52.710;6.502;2022-12-11T00:52:46;91.82;;;24.85;;
52554;SDS011;38455;52.710;6.502;2022-12-11T00:55:11;85.50;;;23.77;;
52554;SDS011;38455;52.710;6.502;2022-12-11T00:57:37;83.82;;;24.77;;
52554;SDS011;38455;52.710;6.502;2022-12-11T01:00:04;80.82;;;25.00;;
52554;SDS011;38455;52.710;6.502;2022-12-11T01:02:33;93.47;;;26.15;;
52554;SDS011;38455;52.710;6.502;2022-12-11T01:04:58;84.15;;;22.58;;
52554;SDS011;38455;52.710;6.502;2022-12-11T01:07:24;87.32;;;23.45;;
52554;SDS011;38455;52.710;6.502;2022-12-11T01:09:50;89.65;;;23.92;;
52554;SDS011;38455;52.710;6.502;2022-12-11T01:12:34;79.07;;;23.45;;
52554;SDS011;38455;52.710;6.502;2022-12-11T01:14:59;76.30;;;21.55;;
52554;SDS011;38455;52.710;6.502;2022-12-11T01:17:25;87.68;;;25.02;;
52554;SDS011;38455;52.710;6.502;2022-12-11T01:19:54;80.55;;;24.42;;
52554;SDS011;38455;52.710;6.502;2022-12-11T01:22:20;92.60;;;25.23;;
52554;SDS011;38455;52.710;6.502;2022-12-11T01:24:45;88.43;;;25.98;;
52554;SDS011;38455;52.710;6.502;2022-12-11T01:27:11;88.60;;;24.08;;
52554;SDS011;38455;52.710;6.502;2022-12-11T01:29:37;74.65;;;22.92;;
52554;SDS011;38455;52.710;6.502;2022-12-11T01:32:02;85.72;;;23.58;;
52554;SDS011;38455;52.710;6.502;2022-12-11T01:34:29;82.05;;;25.23;;
52554;SDS011;38455;52.710;6.502;2022-12-11T01:36:55;97.28;;;25.85;;
52554;SDS011;38455;52.710;6.502;2022-12-11T01:39:20;91.43;;;24.83;;
52554;SDS011;38455;52.710;6.502;2022-12-11T01:41:46;83.30;;;22.83;;
52554;SDS011;38455;52.710;6.502;2022-12-11T01:46:41;78.28;;;25.05;;
52554;SDS011;38455;52.710;6.502;2022-12-11T01:49:11;84.82;;;24.35;;
52554;SDS011;38455;52.710;6.502;2022-12-11T01:51:46;88.25;;;26.00;;
52554;SDS011;38455;52.710;6.502;2022-12-11T01:54:16;88.20;;;24.25;;
52554;SDS011;38455;52.710;6.502;2022-12-11T01:56:45;82.13;;;23.52;;
52554;SDS011;38455;52.710;6.502;2022-12-11T01:59:13;87.07;;;24.73;;
52554;SDS011;38455;52.710;6.502;2022-12-11T02:04:28;77.28;;;24.23;;
52554;SDS011;38455;52.710;6.502;2022-12-11T02:06:55;83.10;;;24.83;;
52554;SDS011;38455;52.710;6.502;2022-12-11T02:09:25;77.97;;;22.80;;
52554;SDS011;38455;52.710;6.502;2022-12-11T02:12:01;80.80;;;23.95;;
52554;SDS011;38455;52.710;6.502;2022-12-11T02:17:25;82.50;;;23.88;;
52554;SDS011;38455;52.710;6.502;2022-12-11T02:20:11;82.40;;;23.95;;
52554;SDS011;38455;52.710;6.502;2022-12-11T02:30:50;84.07;;;26.23;;
52554;SDS011;38455;52.710;6.502;2022-12-11T02:33:22;84.13;;;23.92;;
52554;SDS011;38455;52.710;6.502;2022-12-11T02:35:53;79.60;;;23.95;;
52554;SDS011;38455;52.710;6.502;2022-12-11T02:38:22;84.90;;;24.27;;
52554;SDS011;38455;52.710;6.502;2022-12-11T02:41:00;79.13;;;23.73;;
52554;SDS011;38455;52.710;6.502;2022-12-11T02:43:29;87.03;;;23.45;;
52554;SDS011;38455;52.710;6.502;2022-12-11T02:45:56;93.68;;;27.45;;
52554;SDS011;38455;52.710;6.502;2022-12-11T02:48:23;88.63;;;24.95;;
52554;SDS011;38455;52.710;6.502;2022-12-11T02:50:51;95.40;;;25.25;;
52554;SDS011;38455;52.710;6.502;2022-12-11T02:53:21;86.38;;;24.17;;
52554;SDS011;38455;52.710;6.502;2022-12-11T02:55:51;82.40;;;24.83;;
52554;SDS011;38455;52.710;6.502;2022-12-11T02:58:25;80.10;;;25.20;;
52554;SDS011;38455;52.710;6.502;2022-12-11T03:00:54;91.20;;;25.33;;
52554;SDS011;38455;52.710;6.502;2022-12-11T03:03:20;93.45;;;26.10;;
52554;SDS011;38455;52.710;6.502;2022-12-11T03:05:46;91.97;;;28.83;;
52554;SDS011;38455;52.710;6.502;2022-12-11T03:08:12;93.40;;;24.45;;
52554;SDS011;38455;52.710;6.502;2022-12-11T03:10:41;93.40;;;25.08;;
52554;SDS011;38455;52.710;6.502;2022-12-11T03:13:07;85.50;;;27.27;;
52554;SDS011;38455;52.710;6.502;2022-12-11T03:15:40;90.53;;;24.73;;
52554;SDS011;38455;52.710;6.502;2022-12-11T03:21:13;85.72;;;26.13;;
52554;SDS011;38455;52.710;6.502;2022-12-11T03:23:48;111.15;;;27.42;;
52554;SDS011;38455;52.710;6.502;2022-12-11T03:26:27;92.55;;;26.38;;
52554;SDS011;38455;52.710;6.502;2022-12-11T03:29:02;115.88;;;26.80;;
52554;SDS011;38455;52.710;6.502;2022-12-11T03:31:41;95.07;;;27.65;;
52554;SDS011;38455;52.710;6.502;2022-12-11T03:36:42;100.10;;;26.55;;
52554;SDS011;38455;52.710;6.502;2022-12-11T03:39:11;119.55;;;27.40;;
52554;SDS011;38455;52.710;6.502;2022-12-11T03:41:40;107.82;;;28.65;;
52554;SDS011;38455;52.710;6.502;2022-12-11T03:44:08;90.55;;;25.65;;
52554;SDS011;38455;52.710;6.502;2022-12-11T03:46:36;90.30;;;25.10;;
52554;SDS011;38455;52.710;6.502;2022-12-11T03:49:08;92.75;;;24.65;;
52554;SDS011;38455;52.710;6.502;2022-12-11T03:51:39;108.22;;;27.85;;
52554;SDS011;38455;52.710;6.502;2022-12-11T03:54:06;101.68;;;27.42;;
52554;SDS011;38455;52.710;6.502;2022-12-11T03:56:32;84.68;;;27.13;;
52554;SDS011;38455;52.710;6.502;2022-12-11T03:59:02;93.10;;;26.10;;
52554;SDS011;38455;52.710;6.502;2022-12-11T04:01:27;108.25;;;26.85;;
52554;SDS011;38455;52.710;6.502;2022-12-11T04:03:53;96.43;;;27.50;;
52554;SDS011;38455;52.710;6.502;2022-12-11T04:06:19;105.90;;;26.73;;
52554;SDS011;38455;52.710;6.502;2022-12-11T04:08:44;80.18;;;25.30;;
52554;SDS011;38455;52.710;6.502;2022-12-11T04:11:10;87.72;;;25.00;;
52554;SDS011;38455;52.710;6.502;2022-12-11T04:13:54;92.15;;;26.08;;
52554;SDS011;38455;52.710;6.502;2022-12-11T04:16:38;87.72;;;26.25;;
52554;SDS011;38455;52.710;6.502;2022-12-11T04:19:04;93.85;;;28.23;;
52554;SDS011;38455;52.710;6.502;2022-12-11T04:21:48;92.60;;;28.25;;
52554;SDS011;38455;52.710;6.502;2022-12-11T04:24:33;94.18;;;26.27;;
52554;SDS011;38455;52.710;6.502;2022-12-11T04:26:58;89.22;;;27.63;;
52554;SDS011;38455;52.710;6.502;2022-12-11T04:29:24;94.95;;;26.00;;
52554;SDS011;38455;52.710;6.502;2022-12-11T04:31:50;83.88;;;25.38;;
52554;SDS011;38455;52.710;6.502;2022-12-11T04:34:16;93.63;;;25.38;;
52554;SDS011;38455;52.710;6.502;2022-12-11T04:36:41;92.65;;;27.38;;
52554;SDS011;38455;52.710;6.502;2022-12-11T04:39:07;88.75;;;25.92;;
52554;SDS011;38455;52.710;6.502;2022-12-11T04:41:33;88.22;;;27.30;;
52554;SDS011;38455;52.710;6.502;2022-12-11T04:43:59;80.80;;;24.60;;
52554;SDS011;38455;52.710;6.502;2022-12-11T04:46:25;77.57;;;23.45;;
52554;SDS011;38455;52.710;6.502;2022-12-11T04:48:51;79.50;;;25.00;;
52554;SDS011;38455;52.710;6.502;2022-12-11T04:51:17;87.57;;;24.83;;
52554;SDS011;38455;52.710;6.502;2022-12-11T04:53:44;88.18;;;25.73;;
52554;SDS011;38455;52.710;6.502;2022-12-11T04:56:11;79.45;;;23.70;;
52554;SDS011;38455;52.710;6.502;2022-12-11T04:58:39;72.38;;;21.83;;
52554;SDS011;38455;52.710;6.502;2022-12-11T05:01:19;81.35;;;23.73;;
52554;SDS011;38455;52.710;6.502;2022-12-11T05:03:46;70.63;;;22.73;;
52554;SDS011;38455;52.710;6.502;2022-12-11T05:06:13;76.82;;;23.85;;
52554;SDS011;38455;52.710;6.502;2022-12-11T05:08:40;75.90;;;22.73;;
52554;SDS011;38455;52.710;6.502;2022-12-11T05:11:07;83.80;;;22.33;;
52554;SDS011;38455;52.710;6.502;2022-12-11T05:13:35;90.53;;;25.13;;
52554;SDS011;38455;52.710;6.502;2022-12-11T05:16:04;86.30;;;23.75;;
52554;SDS011;38455;52.710;6.502;2022-12-11T05:18:32;86.05;;;23.90;;
52554;SDS011;38455;52.710;6.502;2022-12-11T05:20:58;89.32;;;24.80;;
52554;SDS011;38455;52.710;6.502;2022-12-11T05:23:25;85.30;;;23.75;;
52554;SDS011;38455;52.710;6.502;2022-12-11T05:25:52;86.72;;;24.52;;
52554;SDS011;38455;52.710;6.502;2022-12-11T05:28:18;90.57;;;23.55;;
52554;SDS011;38455;52.710;6.502;2022-12-11T05:30:44;80.93;;;23.52;;
52554;SDS011;38455;52.710;6.502;2022-12-11T05:33:10;81.72;;;24.42;;
52554;SDS011;38455;52.710;6.502;2022-12-11T05:35:36;83.40;;;23.38;;
52554;SDS011;38455;52.710;6.502;2022-12-11T05:38:01;81.75;;;24.13;;
52554;SDS011;38455;52.710;6.502;2022-12-11T05:40:27;92.85;;;26.02;;
52554;SDS011;38455;52.710;6.502;2022-12-11T05:42:52;91.63;;;24.20;;
52554;SDS011;38455;52.710;6.502;2022-12-11T05:45:18;80.40;;;22.75;;
52554;SDS011;38455;52.710;6.502;2022-12-11T05:47:44;97.30;;;23.85;;
52554;SDS011;38455;52.710;6.502;2022-12-11T05:50:09;81.78;;;24.38;;
52554;SDS011;38455;52.710;6.502;2022-12-11T05:52:35;94.57;;;24.85;;
52554;SDS011;38455;52.710;6.502;2022-12-11T05:55:01;78.55;;;22.85;;
52554;SDS011;38455;52.710;6.502;2022-12-11T05:57:26;82.53;;;24.58;;
52554;SDS011;38455;52.710;6.502;2022-12-11T05:59:52;77.88;;;24.45;;
52554;SDS011;38455;52.710;6.502;2022-12-11T06:02:18;94.72;;;25.45;;
52554;SDS011;38455;52.710;6.502;2022-12-11T06:04:43;88.40;;;23.30;;
52554;SDS011;38455;52.710;6.502;2022-12-11T06:07:09;88.28;;;23.13;;
52554;SDS011;38455;52.710;6.502;2022-12-11T06:09:34;90.10;;;24.45;;
52554;SDS011;38455;52.710;6.502;2022-12-11T06:12:00;85.45;;;23.77;;
52554;SDS011;38455;52.710;6.502;2022-12-11T06:14:26;75.85;;;23.08;;
52554;SDS011;38455;52.710;6.502;2022-12-11T06:16:51;88.70;;;23.80;;
52554;SDS011;38455;52.710;6.502;2022-12-11T06:19:17;82.68;;;23.58;;
52554;SDS011;38455;52.710;6.502;2022-12-11T06:21:42;80.00;;;23.85;;
52554;SDS011;38455;52.710;6.502;2022-12-11T06:24:10;83.55;;;22.80;;
52554;SDS011;38455;52.710;6.502;2022-12-11T06:26:36;89.60;;;23.52;;
52554;SDS011;38455;52.710;6.502;2022-12-11T06:29:01;89.40;;;22.80;;
52554;SDS011;38455;52.710;6.502;2022-12-11T06:31:27;74.30;;;22.88;;
52554;SDS011;38455;52.710;6.502;2022-12-11T06:33:53;75.90;;;21.52;;
52554;SDS011;38455;52.710;6.502;2022-12-11T06:36:19;84.93;;;22.85;;
52554;SDS011;38455;52.710;6.502;2022-12-11T06:38:46;83.05;;;23.50;;
52554;SDS011;38455;52.710;6.502;2022-12-11T06:41:12;81.65;;;22.25;;
52554;SDS011;38455;52.710;6.502;2022-12-11T06:43:39;75.32;;;22.35;;
52554;SDS011;38455;52.710;6.502;2022-12-11T06:46:06;81.53;;;23.25;;
52554;SDS011;38455;52.710;6.502;2022-12-11T06:48:34;87.47;;;23.40;;
52554;SDS011;38455;52.710;6.502;2022-12-11T06:51:03;81.97;;;22.65;;
52554;SDS011;38455;52.710;6.502;2022-12-11T06:53:33;75.68;;;23.30;;
52554;SDS011;38455;52.710;6.502;2022-12-11T06:56:03;78.50;;;24.08;;
52554;SDS011;38455;52.710;6.502;2022-12-11T06:58:30;78.03;;;22.52;;
52554;SDS011;38455;52.710;6.502;2022-12-11T07:00:58;82.05;;;24.10;;
52554;SDS011;38455;52.710;6.502;2022-12-11T07:03:24;71.15;;;21.48;;
52554;SDS011;38455;52.710;6.502;2022-12-11T07:05:49;78.95;;;23.65;;
52554;SDS011;38455;52.710;6.502;2022-12-11T07:08:15;74.93;;;25.30;;
52554;SDS011;38455;52.710;6.502;2022-12-11T07:10:41;79.68;;;23.40;;
52554;SDS011;38455;52.710;6.502;2022-12-11T07:13:06;74.63;;;21.90;;
52554;SDS011;38455;52.710;6.502;2022-12-11T07:15:32;67.15;;;21.33;;
52554;SDS011;38455;52.710;6.502;2022-12-11T07:17:58;81.57;;;24.38;;
52554;SDS011;38455;52.710;6.502;2022-12-11T07:20:23;70.88;;;21.02;;
52554;SDS011;38455;52.710;6.502;2022-12-11T07:22:49;77.15;;;23.98;;
52554;SDS011;38455;52.710;6.502;2022-12-11T07:25:14;81.18;;;24.20;;
52554;SDS011;38455;52.710;6.502;2022-12-11T07:27:40;77.68;;;21.65;;
52554;SDS011;38455;52.710;6.502;2022-12-11T07:30:06;79.30;;;25.63;;
52554;SDS011;38455;52.710;6.502;2022-12-11T07:32:33;80.50;;;22.20;;
52554;SDS011;38455;52.710;6.502;2022-12-11T07:34:58;79.90;;;24.58;;
52554;SDS011;38455;52.710;6.502;2022-12-11T07:37:24;65.82;;;21.98;;
52554;SDS011;38455;52.710;6.502;2022-12-11T07:39:50;70.65;;;22.13;;
52554;SDS011;38455;52.710;6.502;2022-12-11T07:42:15;92.28;;;23.50;;
52554;SDS011;38455;52.710;6.502;2022-12-11T07:44:41;83.45;;;23.05;;
52554;SDS011;38455;52.710;6.502;2022-12-11T07:47:07;90.32;;;23.60;;
52554;SDS011;38455;52.710;6.502;2022-12-11T07:49:32;72.85;;;22.58;;
52554;SDS011;38455;52.710;6.502;2022-12-11T07:51:58;81.47;;;22.95;;
52554;SDS011;38455;52.710;6.502;2022-12-11T07:54:23;68.72;;;22.02;;
52554;SDS011;38455;52.710;6.502;2022-12-11T07:56:49;81.97;;;21.95;;
52554;SDS011;38455;52.710;6.502;2022-12-11T07:59:15;77.07;;;23.08;;
52554;SDS011;38455;52.710;6.502;2022-12-11T08:01:40;85.35;;;25.75;;
52554;SDS011;38455;52.710;6.502;2022-12-11T08:04:08;86.00;;;21.95;;
52554;SDS011;38455;52.710;6.502;2022-12-11T08:06:36;85.30;;;26.17;;
52554;SDS011;38455;52.710;6.502;2022-12-11T08:09:03;66.18;;;22.50;;
52554;SDS011;38455;52.710;6.502;2022-12-11T08:11:32;78.35;;;22.95;;
52554;SDS011;38455;52.710;6.502;2022-12-11T08:13:58;76.30;;;22.08;;
52554;SDS011;38455;52.710;6.502;2022-12-11T08:16:25;79.30;;;23.35;;
52554;SDS011;38455;52.710;6.502;2022-12-11T08:18:51;74.53;;;22.48;;
52554;SDS011;38455;52.710;6.502;2022-12-11T08:21:18;74.47;;;23.90;;
52554;SDS011;38455;52.710;6.502;2022-12-11T08:23:45;75.13;;;22.75;;
52554;SDS011;38455;52.710;6.502;2022-12-11T08:26:13;81.18;;;22.48;;
52554;SDS011;38455;52.710;6.502;2022-12-11T08:28:40;81.18;;;24.13;;
52554;SDS011;38455;52.710;6.502;2022-12-11T08:31:07;69.80;;;25.05;;
52554;SDS011;38455;52.710;6.502;2022-12-11T08:33:34;74.78;;;22.67;;
52554;SDS011;38455;52.710;6.502;2022-12-11T08:36:04;72.05;;;22.48;;
52554;SDS011;38455;52.710;6.502;2022-12-11T08:38:31;65.43;;;20.48;;
52554;SDS011;38455;52.710;6.502;2022-12-11T08:40:57;81.30;;;23.98;;
52554;SDS011;38455;52.710;6.502;2022-12-11T08:43:23;75.53;;;23.83;;
52554;SDS011;38455;52.710;6.502;2022-12-11T08:45:49;67.72;;;22.30;;
52554;SDS011;38455;52.710;6.502;2022-12-11T08:48:14;72.70;;;21.17;;
52554;SDS011;38455;52.710;6.502;2022-12-11T08:50:40;73.13;;;23.77;;
52554;SDS011;38455;52.710;6.502;2022-12-11T08:53:06;82.05;;;24.45;;
52554;SDS011;38455;52.710;6.502;2022-12-11T08:55:32;74.75;;;21.88;;
52554;SDS011;38455;52.710;6.502;2022-12-11T08:57:58;69.72;;;22.23;;
52554;SDS011;38455;52.710;6.502;2022-12-11T09:00:24;84.60;;;23.25;;
52554;SDS011;38455;52.710;6.502;2022-12-11T09:02:51;72.45;;;20.33;;
52554;SDS011;38455;52.710;6.502;2022-12-11T09:05:16;63.83;;;21.75;;
52554;SDS011;38455;52.710;6.502;2022-12-11T09:07:42;75.18;;;21.58;;
52554;SDS011;38455;52.710;6.502;2022-12-11T09:10:08;67.60;;;21.83;;
52554;SDS011;38455;52.710;6.502;2022-12-11T09:12:34;62.00;;;19.95;;
52554;SDS011;38455;52.710;6.502;2022-12-11T09:15:00;67.43;;;20.67;;
52554;SDS011;38455;52.710;6.502;2022-12-11T09:17:26;65.07;;;20.75;;
52554;SDS011;38455;52.710;6.502;2022-12-11T09:19:52;68.07;;;22.95;;
52554;SDS011;38455;52.710;6.502;2022-12-11T09:22:18;63.88;;;22.38;;
52554;SDS011;38455;52.710;6.502;2022-12-11T09:24:43;77.35;;;23.27;;
52554;SDS011;38455;52.710;6.502;2022-12-11T09:27:10;69.97;;;20.63;;
52554;SDS011;38455;52.710;6.502;2022-12-11T09:29:36;73.43;;;20.83;;
52554;SDS011;38455;52.710;6.502;2022-12-11T09:32:03;67.22;;;20.75;;
52554;SDS011;38455;52.710;6.502;2022-12-11T09:34:29;70.13;;;21.58;;
52554;SDS011;38455;52.710;6.502;2022-12-11T09:36:54;80.78;;;21.42;;
52554;SDS011;38455;52.710;6.502;2022-12-11T09:39:20;75.22;;;22.25;;
52554;SDS011;38455;52.710;6.502;2022-12-11T09:55:24;64.70;;;20.23;;
52554;SDS011;38455;52.710;6.502;2022-12-11T09:58:02;65.97;;;21.33;;
52554;SDS011;38455;52.710;6.502;2022-12-11T10:00:56;64.05;;;20.85;;
52554;SDS011;38455;52.710;6.502;2022-12-11T10:04:17;70.95;;;22.30;;
52554;SDS011;38455;52.710;6.502;2022-12-11T10:12:15;59.75;;;20.65;;
52554;SDS011;38455;52.710;6.502;2022-12-11T10:17:32;60.75;;;20.33;;
52554;SDS011;38455;52.710;6.502;2022-12-11T10:20:15;64.72;;;19.80;;
52554;SDS011;38455;52.710;6.502;2022-12-11T10:22:48;62.75;;;20.33;;
52554;SDS011;38455;52.710;6.502;2022-12-11T10:25:20;62.00;;;20.70;;
52554;SDS011;38455;52.710;6.502;2022-12-11T10:27:50;66.85;;;21.30;;
52554;SDS011;38455;52.710;6.502;2022-12-11T10:32:52;64.88;;;20.77;;
52554;SDS011;38455;52.710;6.502;2022-12-11T10:38:12;65.03;;;20.27;;
52554;SDS011;38455;52.710;6.502;2022-12-11T10:40:53;67.25;;;21.73;;
52554;SDS011;38455;52.710;6.502;2022-12-11T10:43:34;60.53;;;20.38;;
52554;SDS011;38455;52.710;6.502;2022-12-11T10:46:02;58.17;;;20.63;;
52554;SDS011;38455;52.710;6.502;2022-12-11T10:48:29;72.47;;;20.58;;
52554;SDS011;38455;52.710;6.502;2022-12-11T10:50:56;66.13;;;22.08;;
52554;SDS011;38455;52.710;6.502;2022-12-11T10:53:28;61.83;;;21.52;;
52554;SDS011;38455;52.710;6.502;2022-12-11T10:55:55;69.78;;;20.48;;
52554;SDS011;38455;52.710;6.502;2022-12-11T10:58:24;63.53;;;20.50;;
52554;SDS011;38455;52.710;6.502;2022-12-11T11:01:13;57.53;;;22.08;;
52554;SDS011;38455;52.710;6.502;2022-12-11T11:03:57;65.35;;;21.73;;
52554;SDS011;38455;52.710;6.502;2022-12-11T11:06:30;62.05;;;20.95;;
52554;SDS011;38455;52.710;6.502;2022-12-11T11:08:57;63.70;;;21.95;;
52554;SDS011;38455;52.710;6.502;2022-12-11T11:16:46;64.13;;;22.08;;
52554;SDS011;38455;52.710;6.502;2022-12-11T11:19:20;62.67;;;21.85;;
52554;SDS011;38455;52.710;6.502;2022-12-11T11:21:51;66.85;;;21.58;;
52554;SDS011;38455;52.710;6.502;2022-12-11T11:24:25;69.80;;;21.92;;
52554;SDS011;38455;52.710;6.502;2022-12-11T11:26:53;60.50;;;22.40;;
52554;SDS011;38455;52.710;6.502;2022-12-11T11:29:37;63.58;;;20.67;;
52554;SDS011;38455;52.710;6.502;2022-12-11T11:32:13;59.42;;;20.17;;
52554;SDS011;38455;52.710;6.502;2022-12-11T11:34:42;60.33;;;20.75;;
52554;SDS011;38455;52.710;6.502;2022-12-11T11:37:21;64.88;;;21.73;;
52554;SDS011;38455;52.710;6.502;2022-12-11T11:39:51;59.08;;;20.08;;
52554;SDS011;38455;52.710;6.502;2022-12-11T11:42:36;66.57;;;21.20;;
52554;SDS011;38455;52.710;6.502;2022-12-11T11:45:13;61.75;;;21.00;;
52554;SDS011;38455;52.710;6.502;2022-12-11T11:47:54;66.82;;;22.85;;
52554;SDS011;38455;52.710;6.502;2022-12-11T11:50:29;64.80;;;21.20;;
52554;SDS011;38455;52.710;6.502;2022-12-11T12:00:39;63.10;;;22.77;;
52554;SDS011;38455;52.710;6.502;2022-12-11T12:03:09;64.68;;;21.23;;
52554;SDS011;38455;52.710;6.502;2022-12-11T12:05:54;68.93;;;23.33;;
52554;SDS011;38455;52.710;6.502;2022-12-11T12:14:04;58.17;;;20.60;;
52554;SDS011;38455;52.710;6.502;2022-12-11T12:25:40;64.15;;;22.50;;
52554;SDS011;38455;52.710;6.502;2022-12-11T12:42:25;54.97;;;20.02;;
52554;SDS011;38455;52.710;6.502;2022-12-11T12:45:38;55.78;;;20.58;;
52554;SDS011;38455;52.710;6.502;2022-12-11T12:48:23;52.38;;;21.30;;
52554;SDS011;38455;52.710;6.502;2022-12-11T12:50:50;53.08;;;19.98;;
52554;SDS011;38455;52.710;6.502;2022-12-11T12:53:20;53.33;;;21.67;;
52554;SDS011;38455;52.710;6.502;2022-12-11T12:55:49;49.90;;;20.80;;
52554;SDS011;38455;52.710;6.502;2022-12-11T13:03:59;53.10;;;20.00;;
52554;SDS011;38455;52.710;6.502;2022-12-11T13:06:36;45.60;;;19.13;;
52554;SDS011;38455;52.710;6.502;2022-12-11T13:11:38;43.05;;;16.90;;
52554;SDS011;38455;52.710;6.502;2022-12-11T13:16:38;38.55;;;16.63;;
52554;SDS011;38455;52.710;6.502;2022-12-11T13:26:46;36.08;;;15.07;;
52554;SDS011;38455;52.710;6.502;2022-12-11T13:29:29;37.17;;;16.27;;
52554;SDS011;38455;52.710;6.502;2022-12-11T13:34:35;31.52;;;14.13;;
52554;SDS011;38455;52.710;6.502;2022-12-11T13:37:03;31.15;;;13.77;;
52554;SDS011;38455;52.710;6.502;2022-12-11T13:39:30;31.38;;;13.88;;
52554;SDS011;38455;52.710;6.502;2022-12-11T13:42:06;32.72;;;13.98;;
52554;SDS011;38455;52.710;6.502;2022-12-11T13:44:45;32.70;;;13.80;;
52554;SDS011;38455;52.710;6.502;2022-12-11T13:47:13;28.67;;;13.35;;
52554;SDS011;38455;52.710;6.502;2022-12-11T13:49:42;27.95;;;13.70;;
52554;SDS011;38455;52.710;6.502;2022-12-11T13:52:18;31.30;;;14.57;;
52554;SDS011;38455;52.710;6.502;2022-12-11T13:54:46;31.50;;;14.02;;
52554;SDS011;38455;52.710;6.502;2022-12-11T13:57:14;28.15;;;14.07;;
52554;SDS011;38455;52.710;6.502;2022-12-11T13:59:45;31.25;;;14.93;;
52554;SDS011;38455;52.710;6.502;2022-12-11T14:05:00;33.55;;;16.13;;
52554;SDS011;38455;52.710;6.502;2022-12-11T14:07:33;37.05;;;17.35;;
52554;SDS011;38455;52.710;6.502;2022-12-11T14:10:06;58.28;;;28.00;;
52554;SDS011;38455;52.710;6.502;2022-12-11T14:12:50;66.43;;;32.95;;
52554;SDS011;38455;52.710;6.502;2022-12-11T14:15:17;59.70;;;28.42;;
52554;SDS011;38455;52.710;6.502;2022-12-11T14:17:43;51.35;;;25.35;;
52554;SDS011;38455;52.710;6.502;2022-12-11T14:20:14;58.42;;;30.08;;
52554;SDS011;38455;52.710;6.502;2022-12-11T14:22:47;40.92;;;20.08;;
52554;SDS011;38455;52.710;6.502;2022-12-11T14:25:17;43.75;;;18.90;;
52554;SDS011;38455;52.710;6.502;2022-12-11T14:27:49;42.50;;;19.02;;
52554;SDS011;38455;52.710;6.502;2022-12-11T14:30:24;34.80;;;15.30;;
52554;SDS011;38455;52.710;6.502;2022-12-11T14:32:59;40.65;;;16.35;;
52554;SDS011;38455;52.710;6.502;2022-12-11T14:35:29;30.92;;;14.73;;
52554;SDS011;38455;52.710;6.502;2022-12-11T14:37:59;34.22;;;14.55;;
52554;SDS011;38455;52.710;6.502;2022-12-11T14:40:31;33.70;;;15.85;;
52554;SDS011;38455;52.710;6.502;2022-12-11T14:43:05;32.78;;;14.95;;
52554;SDS011;38455;52.710;6.502;2022-12-11T14:45:39;30.77;;;14.55;;
52554;SDS011;38455;52.710;6.502;2022-12-11T14:48:17;34.83;;;15.45;;
52554;SDS011;38455;52.710;6.502;2022-12-11T14:50:47;35.50;;;14.82;;
52554;SDS011;38455;52.710;6.502;2022-12-11T14:53:17;36.58;;;16.77;;
52554;SDS011;38455;52.710;6.502;2022-12-11T14:55:49;34.10;;;15.77;;
52554;SDS011;38455;52.710;6.502;2022-12-11T14:58:25;35.38;;;16.30;;
52554;SDS011;38455;52.710;6.502;2022-12-11T15:00:55;36.35;;;16.45;;
52554;SDS011;38455;52.710;6.502;2022-12-11T15:03:29;34.55;;;15.75;;
52554;SDS011;38455;52.710;6.502;2022-12-11T15:05:59;30.15;;;14.63;;
52554;SDS011;38455;52.710;6.502;2022-12-11T15:08:27;31.67;;;14.98;;
52554;SDS011;38455;52.710;6.502;2022-12-11T15:11:08;33.65;;;14.57;;
52554;SDS011;38455;52.710;6.502;2022-12-11T15:13:38;29.88;;;14.55;;
52554;SDS011;38455;52.710;6.502;2022-12-11T15:16:22;29.30;;;13.88;;
52554;SDS011;38455;52.710;6.502;2022-12-11T15:18:49;33.65;;;14.63;;
52554;SDS011;38455;52.710;6.502;2022-12-11T15:21:16;31.27;;;14.80;;
52554;SDS011;38455;52.710;6.502;2022-12-11T15:26:12;34.20;;;14.85;;
52554;SDS011;38455;52.710;6.502;2022-12-11T15:28:38;35.30;;;14.52;;
52554;SDS011;38455;52.710;6.502;2022-12-11T15:31:21;33.15;;;14.25;;
52554;SDS011;38455;52.710;6.502;2022-12-11T15:33:50;33.53;;;14.32;;
52554;SDS011;38455;52.710;6.502;2022-12-11T15:36:24;34.72;;;15.25;;
52554;SDS011;38455;52.710;6.502;2022-12-11T15:38:54;32.17;;;15.20;;
52554;SDS011;38455;52.710;6.502;2022-12-11T15:41:21;32.38;;;14.63;;
52554;SDS011;38455;52.710;6.502;2022-12-11T15:43:51;35.28;;;15.48;;
52554;SDS011;38455;52.710;6.502;2022-12-11T15:46:19;32.42;;;14.27;;
52554;SDS011;38455;52.710;6.502;2022-12-11T15:48:46;31.65;;;14.02;;
52554;SDS011;38455;52.710;6.502;2022-12-11T15:51:12;33.95;;;15.48;;
52554;SDS011;38455;52.710;6.502;2022-12-11T15:53:38;28.58;;;14.45;;
52554;SDS011;38455;52.710;6.502;2022-12-11T15:56:04;29.42;;;14.68;;
52554;SDS011;38455;52.710;6.502;2022-12-11T15:58:31;34.33;;;14.98;;
52554;SDS011;38455;52.710;6.502;2022-12-11T16:00:57;29.60;;;13.65;;
52554;SDS011;38455;52.710;6.502;2022-12-11T16:03:22;32.80;;;15.90;;
52554;SDS011;38455;52.710;6.502;2022-12-11T16:05:49;30.95;;;14.75;;
52554;SDS011;38455;52.710;6.502;2022-12-11T16:08:17;34.10;;;14.30;;
52554;SDS011;38455;52.710;6.502;2022-12-11T16:10:44;36.05;;;16.98;;
52554;SDS011;38455;52.710;6.502;2022-12-11T16:13:11;31.10;;;14.90;;
52554;SDS011;38455;52.710;6.502;2022-12-11T16:15:38;30.95;;;14.82;;
52554;SDS011;38455;52.710;6.502;2022-12-11T16:18:06;32.75;;;15.30;;
52554;SDS011;38455;52.710;6.502;2022-12-11T16:20:34;34.78;;;15.73;;
52554;SDS011;38455;52.710;6.502;2022-12-11T16:23:00;33.95;;;15.50;;
52554;SDS011;38455;52.710;6.502;2022-12-11T16:25:27;33.97;;;16.52;;
52554;SDS011;38455;52.710;6.502;2022-12-11T16:27:59;35.05;;;16.27;;
52554;SDS011;38455;52.710;6.502;2022-12-11T16:30:26;37.15;;;16.13;;